Time;durP1;ratioP1;P1;durP2;ratioP2;P2;SDS_P1;SDS_P2;PMS_P1;PMS_P2;Temp;Humidity;BMP_temperature;BMP_pressure;BME280_temperature;BME280_humidity;BME280_pressure;Samples;Min_cycle;Max_cycle;Signal;HPM_P1;HPM_P2
2021/12/16 00:02:20;;;;;;;41.50;13.98;;;;;;;7.81;91.22;102018.59;5096609;28;20085;-75
2021/12/16 00:07:34;;;;;;;41.50;13.30;;;;;;;7.87;90.67;102020.69;5096527;28;20070;-75
2021/12/16 00:34:00;;;;;;;45.25;14.57;;;;;;;7.81;91.24;102023.94;5096156;28;20032;-75
2021/12/16 00:36:29;;;;;;;44.95;13.13;;;;;;;7.81;90.98;102014.06;5095724;28;20052;-75
2021/12/16 00:38:55;;;;;;;42.03;13.93;;;;;;;7.84;91.15;102020.97;5095662;28;20451;-75
2021/12/16 00:41:20;;;;;;;52.72;14.63;;;;;;;7.85;90.87;102020.84;5096130;28;20030;-74
2021/12/16 00:43:57;;;;;;;49.92;16.25;;;;;;;7.85;91.02;102020.84;5095730;28;20441;-75
2021/12/16 00:54:16;;;;;;;52.38;15.35;;;;;;;7.86;91.27;102027.03;5095763;28;20369;-75
2021/12/16 00:56:48;;;;;;;42.70;15.48;;;;;;;7.89;91.21;102015.97;5095754;28;20114;-75
2021/12/16 00:59:16;;;;;;;48.30;14.02;;;;;;;7.89;91.02;102022.19;5095479;28;20110;-75
2021/12/16 01:07:20;;;;;;;45.72;15.73;;;;;;;7.91;90.98;102027.41;5054653;28;20131;-74
2021/12/16 01:34:54;;;;;;;50.60;15.70;;;;;;;7.95;91.02;102042.25;5095722;28;20086;-75
2021/12/16 01:37:53;;;;;;;55.28;15.98;;;;;;;7.97;90.95;102041.09;5095118;28;20047;-74
2021/12/16 01:50:29;;;;;;;42.85;15.43;;;;;;;7.99;90.94;102057.06;5095111;28;20106;-75
2021/12/16 01:55:49;;;;;;;54.33;16.65;;;;;;;7.97;91.02;102057.22;5094780;28;20035;-75
2021/12/16 01:58:20;;;;;;;52.13;15.18;;;;;;;7.98;90.99;102052.69;5093735;28;20028;-75
2021/12/16 02:01:19;;;;;;;51.45;14.95;;;;;;;7.96;91.29;102055.53;5094639;28;20416;-75
2021/12/16 02:03:54;;;;;;;48.28;14.75;;;;;;;7.94;90.96;102051.28;5094522;28;20111;-76
2021/12/16 02:09:27;;;;;;;41.88;15.23;;;;;;;7.95;91.29;102055.66;5094026;28;20044;-74
2021/12/16 02:34:16;;;;;;;50.13;16.40;;;;;;;7.99;90.92;102074.03;5093749;28;20088;-74
2021/12/16 02:36:45;;;;;;;47.50;15.25;;;;;;;7.98;90.99;102076.84;5093341;28;20109;-74
2021/12/16 02:39:19;;;;;;;47.47;14.35;;;;;;;7.99;91.32;102074.03;5093633;28;20429;-74
2021/12/16 02:41:46;;;;;;;46.85;13.80;;;;;;;7.99;90.68;102071.34;5093908;28;20036;-74
2021/12/16 02:44:27;;;;;;;50.13;15.82;;;;;;;7.98;90.90;102071.47;5093787;28;20110;-75
2021/12/16 02:49:44;;;;;;;45.97;14.90;;;;;;;7.95;90.98;102075.31;5093470;28;20036;-74
2021/12/16 02:52:11;;;;;;;49.42;16.55;;;;;;;7.96;91.16;102078.81;5093305;28;20455;-74
2021/12/16 02:54:37;;;;;;;49.28;14.18;;;;;;;7.99;90.71;102071.34;5093386;28;20047;-74
2021/12/16 02:57:03;;;;;;;51.30;14.57;;;;;;;8.00;91.29;102077.56;5109391;28;20024;-74
2021/12/16 02:59:30;;;;;;;48.45;16.40;;;;;;;7.98;90.89;102071.47;5093492;28;20032;-75
2021/12/16 03:02:01;;;;;;;48.85;17.55;;;;;;;7.94;91.14;102078.97;5093220;28;20075;-74
2021/12/16 03:04:29;;;;;;;48.60;15.82;;;;;;;7.93;91.21;102065.69;5093416;28;20141;-74
2021/12/16 03:06:57;;;;;;;47.05;15.63;;;;;;;7.94;90.81;102070.91;5062204;28;20051;-75
2021/12/16 03:09:54;;;;;;;48.15;15.18;;;;;;;7.92;90.80;102059.47;5092450;28;20024;-75
2021/12/16 03:12:41;;;;;;;53.03;17.08;;;;;;;7.92;91.28;102070.22;5093158;28;20040;-75
2021/12/16 03:15:19;;;;;;;53.70;15.60;;;;;;;7.94;91.14;102076.28;5092175;28;20059;-74
2021/12/16 03:18:01;;;;;;;50.78;17.17;;;;;;;7.94;91.12;102068.25;5093342;28;20035;-75
2021/12/16 03:23:24;;;;;;;45.42;13.10;;;;;;;7.92;91.61;102066.69;5093229;28;20032;-75
2021/12/16 03:38:46;;;;;;;49.35;16.45;;;;;;;7.92;90.89;102075.59;5093091;28;20035;-74
2021/12/16 03:41:14;;;;;;;51.42;16.83;;;;;;;7.96;90.66;102082.34;5092914;28;20081;-74
2021/12/16 03:43:40;;;;;;;45.78;16.75;;;;;;;7.98;90.58;102082.22;5092846;28;20038;-74
2021/12/16 03:48:48;;;;;;;43.42;15.88;;;;;;;7.99;90.60;102081.22;5093100;28;20032;-74
2021/12/16 03:51:36;;;;;;;47.10;16.98;;;;;;;8.01;90.49;102084.59;5092848;28;20466;-74
2021/12/16 03:54:20;;;;;;;46.55;14.85;;;;;;;8.01;90.31;102085.47;5092727;28;20066;-75
2021/12/16 03:56:47;;;;;;;55.38;15.88;;;;;;;7.97;90.07;102094.78;5093272;28;20119;-74
2021/12/16 03:59:18;;;;;;;49.90;14.80;;;;;;;7.98;90.51;102087.59;5092962;28;20070;-74
2021/12/16 04:01:45;;;;;;;49.15;16.10;;;;;;;7.95;90.55;102094.09;5093062;28;20027;-74
2021/12/16 04:04:10;;;;;;;;;;;;;;;8.00;90.41;102093.66;5093348;28;20036;-75
2021/12/16 04:06:37;;;;;;;48.75;14.23;;;;;;;7.97;90.20;102089.41;5091673;28;19908;-74
2021/12/16 04:09:11;;;;;;;44.85;15.35;;;;;;;7.97;90.33;102094.78;5093318;28;20115;-75
2021/12/16 04:11:42;;;;;;;43.78;15.05;;;;;;;8.00;90.24;102093.66;5092931;28;20024;-74
2021/12/16 04:14:11;;;;;;;40.53;13.85;;;;;;;8.00;90.03;102096.34;5093007;28;20032;-75
2021/12/16 04:16:45;;;;;;;46.03;15.13;;;;;;;7.97;90.36;102091.25;5092523;28;20028;-74
2021/12/16 04:19:15;;;;;;;45.05;15.48;;;;;;;7.92;90.08;102091.69;5092941;28;20028;-74
2021/12/16 04:21:44;;;;;;;50.00;15.75;;;;;;;8.08;89.65;102099.13;5094984;28;20056;-75
2021/12/16 04:24:10;;;;;;;44.88;14.68;;;;;;;8.09;89.59;102092.75;5096653;28;20065;-74
2021/12/16 04:26:39;;;;;;;47.38;14.90;;;;;;;8.10;89.65;102101.66;5096283;28;20462;-74
2021/12/16 04:29:06;;;;;;;52.60;15.88;;;;;;;8.10;89.52;102101.66;5096536;28;20024;-74
2021/12/16 04:31:33;;;;;;;45.10;15.18;;;;;;;8.08;89.90;102115.22;5096560;28;20039;-74
2021/12/16 04:33:59;;;;;;;44.17;15.57;;;;;;;8.06;89.78;102111.84;5096177;28;20024;-74
2021/12/16 04:36:25;;;;;;;47.35;14.00;;;;;;;8.10;89.98;102118.59;5111616;28;20059;-73
2021/12/16 04:38:50;;;;;;;51.00;15.73;;;;;;;8.09;90.25;102114.22;5094858;28;20067;-74
2021/12/16 04:41:17;;;;;;;55.65;15.68;;;;;;;8.13;89.86;102109.41;5112196;28;20056;-75
2021/12/16 04:43:50;;;;;;;48.63;15.10;;;;;;;8.15;89.62;102107.44;5095899;28;20316;-75
2021/12/16 04:46:20;;;;;;;53.40;16.50;;;;;;;8.09;90.03;102116.91;5096127;28;20046;-73
2021/12/16 04:48:48;;;;;;;48.35;14.60;;;;;;;8.09;90.27;102116.91;5096811;28;20111;-74
2021/12/16 04:51:14;;;;;;;41.92;15.40;;;;;;;8.08;90.19;102114.38;5096884;28;20035;-75
2021/12/16 04:53:41;;;;;;;51.33;16.15;;;;;;;8.09;90.53;102113.38;5096555;28;20035;-77
2021/12/16 04:56:09;;;;;;;48.90;17.80;;;;;;;8.10;90.10;102109.72;5096056;28;20452;-74
2021/12/16 04:58:35;;;;;;;49.10;15.27;;;;;;;8.12;90.20;102107.72;5094635;28;20474;-75
2021/12/16 05:01:01;;;;;;;54.88;16.40;;;;;;;8.06;89.70;102105.66;5096919;28;20067;-74
2021/12/16 05:03:27;;;;;;;51.17;16.75;;;;;;;8.02;89.75;102100.56;5097849;28;20032;-74
2021/12/16 05:05:54;;;;;;;47.30;14.60;;;;;;;8.05;89.66;102093.22;5065418;27;20040;-74
2021/12/16 05:08:20;;;;;;;52.20;15.68;;;;;;;8.02;89.77;102100.56;5098885;28;20032;-74
2021/12/16 05:10:47;;;;;;;;;;;;;;;8.02;89.88;102095.19;5098604;28;20447;-75
2021/12/16 05:13:13;;;;;;;46.78;14.77;;;;;;;8.00;89.89;102101.72;5097050;28;19911;-75
2021/12/16 05:15:41;;;;;;;53.40;15.45;;;;;;;7.97;89.86;102097.47;5096049;28;20110;-75
2021/12/16 05:18:10;;;;;;;40.67;14.88;;;;;;;7.96;90.00;102103.84;5095538;28;20032;-75
2021/12/16 05:20:40;;;;;;;42.40;14.63;;;;;;;7.95;89.74;102101.28;5095600;28;20062;-75
2021/12/16 05:26:06;;;;;;;42.65;15.30;;;;;;;7.90;89.60;102112.47;5095815;28;20530;-75
2021/12/16 05:28:32;;;;;;;46.83;14.93;;;;;;;7.89;89.92;102113.44;5111358;28;20039;-76
2021/12/16 05:30:57;;;;;;;51.13;14.52;;;;;;;7.86;89.81;102105.72;5095493;28;20024;-76
2021/12/16 05:33:24;;;;;;;51.58;16.52;;;;;;;7.86;89.85;102119.13;5094195;28;20394;-73
2021/12/16 05:35:50;;;;;;;50.75;16.45;;;;;;;7.89;90.53;102124.19;5093498;28;20032;-73
2021/12/16 05:38:16;;;;;;;54.55;16.67;;;;;;;7.92;89.84;102123.06;5095355;28;20482;-74
2021/12/16 05:40:42;;;;;;;52.70;15.57;;;;;;;7.91;90.11;102127.56;5095778;28;20064;-73
2021/12/16 05:43:11;;;;;;;54.55;17.27;;;;;;;7.86;90.20;102126.34;5094839;28;20454;-74
2021/12/16 05:45:38;;;;;;;53.33;16.42;;;;;;;7.82;89.71;102133.84;5094352;28;20101;-74
2021/12/16 05:48:07;;;;;;;50.58;15.75;;;;;;;7.82;90.04;102135.66;5093385;28;20028;-73
2021/12/16 05:50:37;;;;;;;42.67;15.63;;;;;;;7.79;90.00;102146.69;5094628;28;20043;-75
2021/12/16 05:53:04;;;;;;;52.30;16.02;;;;;;;7.73;90.41;102139.19;5094407;28;20082;-74
2021/12/16 05:55:30;;;;;;;49.15;17.48;;;;;;;7.71;90.44;102133.97;5094791;28;20478;-73
2021/12/16 05:57:56;;;;;;;48.20;15.57;;;;;;;7.73;90.91;102145.41;5094345;28;20032;-74
2021/12/16 06:00:31;;;;;;;36.03;13.70;;;;;;;7.74;90.73;102152.47;5094472;28;20036;-74
2021/12/16 06:02:57;;;;;;;52.60;15.68;;;;;;;7.76;90.92;102149.66;5094757;28;20040;-73
2021/12/16 06:05:23;;;;;;;52.42;16.00;;;;;;;7.75;90.91;102154.16;5094197;28;20026;-74
2021/12/16 06:07:49;;;;;;;43.55;15.07;;;;;;;7.76;90.89;102155.03;5094412;28;20040;-74
2021/12/16 06:13:01;;;;;;;44.50;15.95;;;;;;;7.81;91.30;102164.34;5094554;28;20383;-74
2021/12/16 06:26:29;;;;;;;53.15;17.85;;;;;;;7.72;91.45;102158.97;5094047;28;20043;-73
2021/12/16 06:28:55;;;;;;;54.78;16.77;;;;;;;7.73;91.73;102168.72;5093738;28;20043;-74
2021/12/16 06:31:21;;;;;;;54.27;18.10;;;;;;;7.79;91.75;102171.69;5093544;28;20028;-74
2021/12/16 06:33:46;;;;;;;65.55;22.88;;;;;;;7.81;91.35;102169.72;5093893;28;20497;-76
2021/12/16 06:36:12;;;;;;;58.47;19.08;;;;;;;7.85;91.28;102181.84;5093180;28;20100;-73
2021/12/16 06:38:37;;;;;;;49.38;15.38;;;;;;;7.91;91.08;102180.41;5093390;28;20028;-75
2021/12/16 06:41:03;;;;;;;49.97;15.70;;;;;;;7.90;91.03;102176.03;5093617;28;20115;-74
2021/12/16 06:43:28;;;;;;;52.38;15.75;;;;;;;7.90;90.89;102179.56;5093197;28;20043;-74
2021/12/16 06:45:58;;;;;;;60.97;17.60;;;;;;;7.89;90.99;102177.88;5093618;28;20036;-74
2021/12/16 06:48:30;;;;;;;46.67;16.92;;;;;;;7.91;90.93;102181.25;5093209;28;20130;-74
2021/12/16 06:51:01;;;;;;;57.25;18.48;;;;;;;7.89;91.20;102183.22;5093623;28;20036;-75
2021/12/16 06:53:32;;;;;;;53.88;16.13;;;;;;;7.88;91.18;102180.72;5093383;28;20028;-74
2021/12/16 06:58:35;;;;;;;50.72;17.75;;;;;;;7.91;91.27;102196.50;5093613;28;20073;-74
2021/12/16 07:01:16;;;;;;;52.72;16.85;;;;;;;8.09;90.56;102191.25;5093560;28;20024;-74
2021/12/16 07:03:47;;;;;;;58.88;17.95;;;;;;;7.94;90.68;102191.72;5060225;27;20413;-74
2021/12/16 07:06:16;;;;;;;51.70;16.13;;;;;;;7.94;90.91;102196.22;5095474;28;20149;-74
2021/12/16 07:08:42;;;;;;;51.72;17.33;;;;;;;7.98;90.45;102201.16;5092699;28;20481;-74
2021/12/16 07:11:09;;;;;;;63.88;18.17;;;;;;;8.06;90.21;102196.94;5108576;28;20027;-74
2021/12/16 07:13:39;;;;;;;;;;;;;;;8.20;90.48;102200.00;5093379;28;20103;-74
2021/12/16 07:16:05;;;;;;;55.90;16.15;;;;;;;8.33;89.43;102211.28;5093094;28;19912;-74
2021/12/16 07:18:31;;;;;;;53.55;16.65;;;;;;;8.26;89.48;102214.66;5093229;28;20098;-74
2021/12/16 07:20:57;;;;;;;55.95;16.85;;;;;;;8.57;88.62;102207.25;5092855;28;20059;-74
2021/12/16 07:23:22;;;;;;;53.20;17.67;;;;;;;8.61;88.66;102216.66;5108887;28;20131;-74
2021/12/16 07:25:48;;;;;;;55.97;15.45;;;;;;;8.48;88.92;102224.22;5093344;28;20066;-74
2021/12/16 07:28:14;;;;;;;57.42;18.10;;;;;;;8.43;89.16;102224.66;5093121;28;20055;-75
2021/12/16 07:30:43;;;;;;;61.55;18.00;;;;;;;8.54;88.34;102226.34;5091830;28;20028;-77
2021/12/16 07:33:11;;;;;;;59.15;18.95;;;;;;;8.47;88.32;102231.44;5093438;28;20078;-75
2021/12/16 07:35:37;;;;;;;57.05;17.10;;;;;;;8.27;89.30;102249.41;5091837;28;20485;-74
2021/12/16 07:38:03;;;;;;;;;;;;;;;8.53;88.78;102246.97;5093940;28;20409;-75
2021/12/16 07:40:30;;;;;;;63.23;17.60;;;;;;;8.59;88.34;102251.78;5094419;28;19941;-74
2021/12/16 07:45:48;;;;;;;57.47;18.17;;;;;;;8.48;88.14;102257.31;5091973;28;20045;-74
2021/12/16 07:48:16;;;;;;;47.20;17.45;;;;;;;8.61;87.98;102260.50;5093097;28;20451;-74
2021/12/16 07:50:46;;;;;;;53.35;15.93;;;;;;;8.57;88.25;102248.38;5093113;28;20061;-74
2021/12/16 07:53:11;;;;;;;60.25;16.67;;;;;;;8.57;88.01;102253.75;5093305;28;20055;-74
2021/12/16 07:55:39;;;;;;;52.47;16.73;;;;;;;8.30;88.66;102251.81;5092221;28;20036;-74
2021/12/16 07:58:04;;;;;;;52.67;15.15;;;;;;;8.64;87.75;102246.78;5096750;28;20367;-75
2021/12/16 08:00:33;;;;;;;50.80;17.50;;;;;;;8.51;87.81;102251.66;5096620;28;20024;-75
2021/12/16 08:03:00;;;;;;;56.00;17.83;;;;;;;8.41;88.60;102255.38;5095495;28;20054;-75
2021/12/16 08:05:27;;;;;;;62.28;18.08;;;;;;;8.19;89.12;102245.78;5096972;28;20039;-76
2021/12/16 08:07:53;;;;;;;67.75;19.55;;;;;;;7.97;89.99;102237.06;5112612;28;20024;-75
2021/12/16 08:10:21;;;;;;;59.50;18.20;;;;;;;7.93;90.47;102249.06;5096354;28;20054;-75
2021/12/16 08:12:47;;;;;;;55.20;16.83;;;;;;;8.10;90.83;102247.47;5096245;28;20175;-75
2021/12/16 08:15:15;;;;;;;53.97;17.30;;;;;;;8.10;90.06;102252.00;5096560;28;20062;-75
2021/12/16 08:17:42;;;;;;;62.80;18.33;;;;;;;8.02;89.59;102252.75;5096399;28;20050;-74
2021/12/16 08:20:10;;;;;;;64.43;20.30;;;;;;;7.78;90.50;102273.78;5096077;28;20450;-74
2021/12/16 08:22:36;;;;;;;54.42;19.23;;;;;;;7.64;91.37;102267.88;5095661;28;20046;-75
2021/12/16 08:25:02;;;;;;;56.53;17.88;;;;;;;7.60;91.74;102274.50;5096172;28;20069;-74
2021/12/16 08:27:28;;;;;;;51.83;18.98;;;;;;;7.66;91.34;102292.72;5095697;28;20047;-74
2021/12/16 08:29:53;;;;;;;54.97;17.53;;;;;;;7.59;91.79;102309.50;5095889;28;20032;-74
2021/12/16 08:32:19;;;;;;;55.85;16.42;;;;;;;7.63;92.25;102308.25;5095632;28;20269;-75
2021/12/16 08:34:46;;;;;;;59.15;17.38;;;;;;;7.77;92.99;102313.19;5095794;28;20090;-75
2021/12/16 08:37:14;;;;;;;56.78;17.02;;;;;;;8.09;91.21;102329.00;5095625;28;20052;-76
2021/12/16 08:39:40;;;;;;;53.35;15.88;;;;;;;8.12;90.54;102322.53;5095997;28;20025;-75
2021/12/16 08:42:11;;;;;;;;;;;;;;;8.27;90.19;102321.94;5096076;28;20070;-74
2021/12/16 08:44:39;;;;;;;49.83;15.73;;;;;;;8.16;89.08;102334.69;5095809;28;20300;-75
2021/12/16 08:47:10;;;;;;;55.63;16.90;;;;;;;7.83;90.18;102339.50;5095723;28;20032;-74
2021/12/16 08:49:35;;;;;;;47.95;15.82;;;;;;;7.85;90.54;102334.84;5095916;28;20024;-81
2021/12/16 08:52:06;;;;;;;55.63;14.85;;;;;;;7.84;90.36;102337.66;5095807;28;20035;-75
2021/12/16 08:54:32;;;;;;;51.80;16.63;;;;;;;7.74;90.44;102340.31;5095587;28;20029;-75
2021/12/16 08:56:58;;;;;;;51.63;15.57;;;;;;;7.79;90.59;102343.44;5111645;28;20489;-75
2021/12/16 08:59:25;;;;;;;51.45;14.80;;;;;;;7.99;90.02;102349.66;5095238;28;20024;-78
2021/12/16 09:01:55;;;;;;;48.28;14.73;;;;;;;8.12;89.88;102342.16;5095728;28;20035;-74
2021/12/16 09:04:23;;;;;;;53.47;17.13;;;;;;;7.90;89.87;102342.44;5059263;27;20420;-75
2021/12/16 09:07:03;;;;;;;65.85;15.80;;;;;;;7.88;90.38;102339.06;5096046;28;20034;-76
2021/12/16 09:09:33;;;;;;;47.60;14.30;;;;;;;7.85;89.74;102340.19;5095423;28;20028;-74
2021/12/16 09:12:26;;;;;;;57.78;16.42;;;;;;;7.81;90.19;102335.25;5095493;28;20040;-75
2021/12/16 09:14:51;;;;;;;53.10;14.65;;;;;;;7.91;89.66;102342.28;5095655;28;20089;-74
2021/12/16 09:17:16;;;;;;;47.75;15.75;;;;;;;7.97;89.55;102352.47;5095437;28;20031;-75
2021/12/16 09:19:50;;;;;;;56.63;16.75;;;;;;;7.86;89.65;102349.94;5094989;28;20036;-76
2021/12/16 09:22:20;;;;;;;53.95;16.45;;;;;;;7.78;89.98;102341.72;5110730;28;20486;-74
2021/12/16 09:24:47;;;;;;;46.65;13.27;;;;;;;7.72;90.15;102347.66;5095464;28;20036;-74
2021/12/16 09:27:27;;;;;;;49.90;15.02;;;;;;;7.78;90.12;102355.16;5095540;28;20101;-82
2021/12/16 09:29:55;;;;;;;45.20;14.57;;;;;;;7.75;89.59;102359.94;5093800;28;20032;-75
2021/12/16 09:32:22;;;;;;;40.60;15.07;;;;;;;7.71;89.60;102356.69;5095129;28;20169;-74
2021/12/16 09:34:51;;;;;;;50.10;13.77;;;;;;;7.75;90.01;102351.91;5095265;28;20490;-75
2021/12/16 09:37:17;;;;;;;53.20;14.88;;;;;;;7.80;90.00;102355.00;5094745;28;20052;-75
2021/12/16 09:39:42;;;;;;;57.15;15.32;;;;;;;7.72;90.21;102361.06;5094922;28;20039;-74
2021/12/16 09:42:09;;;;;;;63.67;16.73;;;;;;;7.61;90.68;102355.84;5095015;28;20470;-75
2021/12/16 09:44:39;;;;;;;51.38;15.60;;;;;;;7.60;90.93;102365.72;5110905;28;20058;-73
2021/12/16 09:47:09;;;;;;;58.67;16.50;;;;;;;7.62;90.95;102361.06;5094721;28;20024;-75
2021/12/16 09:49:36;;;;;;;63.38;16.20;;;;;;;7.63;90.97;102361.91;5095313;28;20036;-74
2021/12/16 09:52:04;;;;;;;58.38;15.80;;;;;;;7.60;91.09;102360.34;5094784;28;20024;-74
2021/12/16 09:54:32;;;;;;;70.32;16.73;;;;;;;7.55;91.42;102346.50;5094911;28;20379;-76
2021/12/16 09:56:59;;;;;;;62.90;15.85;;;;;;;7.55;91.41;102356.38;5094470;28;20027;-76
2021/12/16 09:59:36;;;;;;;53.55;14.75;;;;;;;7.59;91.24;102360.47;5094294;28;20368;-75
2021/12/16 10:02:07;;;;;;;;;;;;;;;7.65;90.70;102368.00;5095114;28;20070;-74
2021/12/16 10:04:34;;;;;;;54.53;15.23;;;;;;;7.53;90.39;102363.72;5095071;28;19918;-75
2021/12/16 10:07:04;;;;;;;61.58;15.70;;;;;;;7.45;90.76;102356.38;5094094;28;20162;-76
2021/12/16 10:09:30;;;;;;;52.00;16.23;;;;;;;7.50;91.05;102364.84;5094790;28;20039;-75
2021/12/16 10:12:04;;;;;;;55.50;16.08;;;;;;;7.50;91.44;102364.00;5094137;28;20108;-74
2021/12/16 10:19:41;;;;;;;47.75;13.82;;;;;;;7.55;90.87;102356.38;5093744;28;20097;-74
2021/12/16 10:22:18;;;;;;;61.42;15.93;;;;;;;7.58;90.89;102364.16;5094509;28;20455;-74
2021/12/16 10:24:46;;;;;;;58.30;16.95;;;;;;;7.44;91.15;102369.91;5094426;28;20073;-74
2021/12/16 10:27:11;;;;;;;60.80;14.38;;;;;;;7.56;91.31;102366.13;5094503;28;20028;-74
2021/12/16 10:29:42;;;;;;;47.53;13.57;;;;;;;7.66;90.75;102362.50;5094397;28;20028;-73
2021/12/16 10:32:37;;;;;;;54.95;14.73;;;;;;;7.81;90.59;102365.63;5094392;28;20028;-73
2021/12/16 10:35:08;;;;;;;55.70;14.15;;;;;;;7.87;90.46;102366.91;5093690;28;20036;-74
2021/12/16 10:37:38;;;;;;;56.03;13.65;;;;;;;7.85;90.26;102369.72;5094404;28;20411;-73
2021/12/16 10:40:49;;;;;;;53.67;14.73;;;;;;;7.81;90.16;102362.94;5093785;28;20101;-74
2021/12/16 10:43:27;;;;;;;55.92;15.43;;;;;;;7.63;90.42;102362.75;5071235;28;20108;-74
2021/12/16 10:46:24;;;;;;;62.35;15.35;;;;;;;7.53;91.06;102364.56;5071011;28;20060;-74
2021/12/16 10:48:54;;;;;;;53.60;14.82;;;;;;;7.56;91.05;102371.47;5088633;28;20119;-75
2021/12/16 10:51:40;;;;;;;60.22;16.33;;;;;;;7.57;90.90;102379.41;5093388;28;20036;-74
2021/12/16 10:54:25;;;;;;;52.83;15.10;;;;;;;7.56;91.11;102379.53;5093669;28;20028;-75
2021/12/16 10:56:59;;;;;;;58.95;16.77;;;;;;;7.49;91.23;102373.88;5093805;28;20059;-75
2021/12/16 10:59:40;;;;;;;58.97;18.10;;;;;;;7.47;91.66;102373.19;5093545;28;20098;-74
2021/12/16 11:02:08;;;;;;;59.40;17.08;;;;;;;7.55;91.50;102377.84;5093663;28;20356;-76
2021/12/16 11:04:41;;;;;;;53.28;16.27;;;;;;;7.59;91.28;102380.13;5058156;27;20103;-75
2021/12/16 11:07:14;;;;;;;57.63;15.90;;;;;;;7.63;90.82;102378.00;5109367;28;20412;-74
2021/12/16 11:09:43;;;;;;;52.78;16.33;;;;;;;7.67;91.06;102376.75;5093163;28;20032;-73
2021/12/16 11:12:20;;;;;;;54.45;14.95;;;;;;;7.58;91.03;102374.88;5093151;28;20024;-73
2021/12/16 11:14:51;;;;;;;52.33;14.65;;;;;;;7.70;90.58;102376.47;5093453;28;20079;-74
2021/12/16 11:17:19;;;;;;;49.90;14.90;;;;;;;7.74;90.53;102380.56;5108608;28;20472;-74
2021/12/16 11:19:52;;;;;;;47.50;13.45;;;;;;;7.79;90.32;102381.00;5093019;28;20039;-75
2021/12/16 11:22:23;;;;;;;49.58;16.52;;;;;;;7.75;90.29;102384.94;5093347;28;20423;-75
2021/12/16 11:24:50;;;;;;;48.28;14.35;;;;;;;7.70;90.61;102381.84;5109212;28;20032;-74
2021/12/16 11:27:24;;;;;;;53.63;15.55;;;;;;;7.68;90.39;102383.81;5092841;28;20042;-74
2021/12/16 11:29:50;;;;;;;46.25;15.25;;;;;;;7.65;90.67;102384.94;5093567;28;20032;-75
2021/12/16 11:32:42;;;;;;;52.75;15.80;;;;;;;7.60;90.74;102376.44;5097258;28;20366;-73
2021/12/16 11:35:23;;;;;;;54.72;14.93;;;;;;;7.62;90.94;102379.00;5114235;28;20032;-74
2021/12/16 11:37:49;;;;;;;49.25;13.80;;;;;;;7.64;90.65;102375.19;5113456;28;20060;-74
2021/12/16 11:40:16;;;;;;;53.97;14.05;;;;;;;7.53;91.04;102375.28;5097633;28;20111;-76
2021/12/16 11:42:42;;;;;;;48.42;14.93;;;;;;;7.48;91.01;102376.72;5098632;28;20273;-75
2021/12/16 11:45:07;;;;;;;50.03;14.33;;;;;;;7.48;91.58;102371.34;5097683;28;20462;-75
2021/12/16 11:47:32;;;;;;;50.00;16.10;;;;;;;7.46;91.74;102365.25;5097725;28;20266;-76
2021/12/16 11:50:03;;;;;;;53.85;16.83;;;;;;;7.47;91.50;102364.28;5097378;28;20028;-73
2021/12/16 11:52:33;;;;;;;50.35;17.30;;;;;;;7.41;91.55;102362.97;5097322;28;20028;-74
2021/12/16 11:55:10;;;;;;;54.42;16.23;;;;;;;7.43;91.65;102362.84;5112967;28;20032;-74
2021/12/16 11:57:40;;;;;;;63.45;16.75;;;;;;;7.46;91.65;102354.53;5097460;28;20055;-75
2021/12/16 12:00:16;;;;;;;43.83;14.57;;;;;;;7.43;91.53;102361.00;5112992;28;20031;-75
2021/12/16 12:02:51;;;;;;;51.60;13.60;;;;;;;7.50;91.71;102358.66;5095940;28;20032;-76
2021/12/16 12:05:28;;;;;;;49.60;15.80;;;;;;;7.53;91.81;102369.91;5097629;28;20028;-76
2021/12/16 12:07:55;;;;;;;51.35;13.65;;;;;;;7.61;91.42;102362.03;5097172;28;20094;-76
2021/12/16 12:10:34;;;;;;;53.05;14.77;;;;;;;7.60;90.88;102364.88;5096999;28;20031;-75
2021/12/16 12:13:06;;;;;;;44.63;15.23;;;;;;;7.60;91.05;102367.56;5097523;28;20102;-75
2021/12/16 12:15:33;;;;;;;47.38;13.30;;;;;;;7.63;91.20;102369.97;5112784;28;20039;-75
2021/12/16 12:17:58;;;;;;;42.55;13.15;;;;;;;7.69;91.31;102374.78;5096844;28;20028;-75
2021/12/16 12:20:27;;;;;;;50.08;14.20;;;;;;;7.68;91.09;102367.72;5096720;28;20412;-74
2021/12/16 12:22:53;;;;;;;42.67;12.57;;;;;;;7.74;91.05;102377.03;5096986;28;20043;-74
2021/12/16 12:25:19;;;;;;;40.28;13.15;;;;;;;7.79;90.64;102381.00;5096675;28;20036;-74
2021/12/16 12:27:45;;;;;;;48.55;14.50;;;;;;;7.78;90.40;102384.66;5097277;28;20086;-75
2021/12/16 12:30:11;;;;;;;45.40;12.95;;;;;;;7.75;90.50;102384.94;5096144;28;20032;-75
2021/12/16 12:32:47;;;;;;;44.75;15.15;;;;;;;7.79;90.50;102380.16;5096416;28;20039;-74
2021/12/16 12:35:38;;;;;;;41.72;15.07;;;;;;;7.75;90.32;102379.56;5096389;28;20039;-75
2021/12/16 12:38:03;;;;;;;46.75;13.90;;;;;;;7.77;90.70;102385.66;5094940;28;20044;-74
2021/12/16 12:40:35;;;;;;;38.15;12.65;;;;;;;7.83;90.51;102382.44;5095967;28;20039;-74
2021/12/16 12:43:02;;;;;;;53.97;15.07;;;;;;;7.79;90.50;102374.78;5095044;28;20104;-74
2021/12/16 12:45:32;;;;;;;45.00;13.25;;;;;;;7.76;90.85;102380.41;5096317;28;20027;-75
2021/12/16 12:47:59;;;;;;;42.65;13.48;;;;;;;7.86;90.80;102382.16;5096204;28;20024;-75
2021/12/16 12:50:39;;;;;;;43.22;13.30;;;;;;;7.88;90.61;102377.47;5096072;28;20032;-75
2021/12/16 12:53:16;;;;;;;41.70;13.70;;;;;;;7.92;90.61;102378.88;5095839;28;20028;-75
2021/12/16 12:55:42;;;;;;;43.00;13.70;;;;;;;7.94;90.23;102384.97;5095847;28;20081;-75
2021/12/16 12:58:12;;;;;;;49.80;13.93;;;;;;;7.79;90.87;102380.16;5094332;28;20036;-75
2021/12/16 13:00:47;;;;;;;47.03;15.13;;;;;;;7.81;90.62;102387.09;5095988;28;20115;-75
2021/12/16 13:03:29;;;;;;;49.47;14.65;;;;;;;7.81;91.00;102389.75;5111474;28;20028;-74
2021/12/16 13:05:59;;;;;;;52.38;14.23;;;;;;;7.81;91.06;102388.91;5084759;28;20144;-74
2021/12/16 13:08:29;;;;;;;45.10;12.95;;;;;;;7.81;91.01;102384.41;5111034;28;20044;-75
2021/12/16 13:11:08;;;;;;;50.90;13.55;;;;;;;7.88;90.96;102384.69;5095555;28;20085;-75
2021/12/16 13:13:42;;;;;;;46.67;11.80;;;;;;;7.94;90.71;102384.97;5095472;28;20020;-74
2021/12/16 13:27:09;;;;;;;49.25;14.55;;;;;;;8.16;90.00;102389.22;5095165;28;20363;-74
2021/12/16 13:29:42;;;;;;;44.50;15.50;;;;;;;8.16;90.14;102380.31;5094739;28;20115;-74
2021/12/16 13:32:26;;;;;;;51.00;13.70;;;;;;;8.20;89.91;102382.59;5110528;28;20058;-74
2021/12/16 13:35:48;;;;;;;50.40;13.43;;;;;;;8.24;90.05;102380.47;5094718;28;20479;-75
2021/12/16 13:37:52;;;;;;;38.55;13.50;;;;;;;8.28;89.89;102388.09;5094051;28;20105;-75
2021/12/16 13:40:24;;;;;;;39.15;12.98;;;;;;;8.32;89.91;102388.69;5094699;28;20028;-82
2021/12/16 13:43:00;;;;;;;48.70;15.70;;;;;;;8.42;89.62;102392.19;5094763;28;20020;-76
2021/12/16 13:45:35;;;;;;;43.70;13.52;;;;;;;8.39;88.87;102386.28;5110829;28;20027;-75
2021/12/16 13:48:31;;;;;;;47.15;14.63;;;;;;;8.43;89.28;102385.00;5095049;28;20028;-75
2021/12/16 14:01:05;;;;;;;45.90;13.25;;;;;;;8.45;88.55;102386.53;5094003;28;20051;-76
2021/12/16 14:05:34;;;;;;;47.80;15.38;;;;;;;8.21;89.54;102391.50;5093446;28;20040;-75
2021/12/16 14:08:03;;;;;;;55.70;15.55;;;;;;;8.24;89.60;102396.59;5093788;28;20433;-75
2021/12/16 14:16:57;;;;;;;52.03;14.15;;;;;;;8.23;89.73;102390.38;5094370;28;20066;-75
2021/12/16 14:41:43;;;;;;;72.38;15.27;;;;;;;8.00;91.51;102392.47;5093795;28;20131;-75
2021/12/16 14:46:59;;;;;;;61.38;15.50;;;;;;;8.01;91.10;102388.81;5094105;28;20036;-74
2021/12/16 14:49:33;;;;;;;62.67;16.15;;;;;;;8.02;90.88;102392.34;5093862;28;20036;-74
2021/12/16 14:51:59;;;;;;;61.15;15.80;;;;;;;8.02;91.10;102395.03;5109452;28;20024;-75
2021/12/16 14:54:30;;;;;;;58.15;16.30;;;;;;;7.95;91.27;102394.72;5093943;28;20505;-74
2021/12/16 14:57:00;;;;;;;69.13;18.08;;;;;;;8.01;91.57;102396.84;5093531;28;20390;-74
2021/12/16 14:59:27;;;;;;;51.47;17.30;;;;;;;7.94;91.37;102393.03;5093184;28;20055;-74
2021/12/16 15:01:57;;;;;;;54.22;16.13;;;;;;;7.91;91.20;102395.97;5093653;28;20035;-75